Time;durP1;ratioP1;P1;durP2;ratioP2;P2;SDS_P1;SDS_P2;PMS_P1;PMS_P2;Temp;Humidity;BMP_temperature;BMP_pressure;BME280_temperature;BME280_humidity;BME280_pressure;Samples;Min_cycle;Max_cycle;Signal;HPM_P1;HPM_P2
2023/01/09 00:01:13;;;;;;;3.33;3.03;;;6.90;99.90;;;;;;5067404;28;20202;-77
2023/01/09 00:03:40;;;;;;;4.63;2.83;;;6.90;99.90;;;;;;5059348;28;20230;-79
2023/01/09 00:06:07;;;;;;;2.65;2.45;;;6.90;99.90;;;;;;5052084;28;20724;-78
2023/01/09 00:08:36;;;;;;;3.85;2.80;;;6.80;99.90;;;;;;5062534;28;20228;-78
2023/01/09 00:11:03;;;;;;;5.47;2.83;;;6.90;99.90;;;;;;5051800;28;20227;-78
2023/01/09 00:13:31;;;;;;;4.40;3.25;;;6.80;99.90;;;;;;5059591;28;20317;-78
2023/01/09 00:15:59;;;;;;;3.50;2.95;;;6.80;99.90;;;;;;5053317;28;20726;-78
2023/01/09 00:18:26;;;;;;;3.88;3.00;;;6.90;99.90;;;;;;5064528;28;20230;-77
2023/01/09 00:20:53;;;;;;;2.63;2.42;;;6.90;99.90;;;;;;5050205;28;20195;-78
2023/01/09 00:23:20;;;;;;;2.50;2.30;;;6.90;99.90;;;;;;5064625;28;20232;-77
2023/01/09 00:25:48;;;;;;;4.80;3.03;;;6.90;99.90;;;;;;5067387;28;20293;-77
2023/01/09 00:28:15;;;;;;;2.33;2.13;;;7.00;99.90;;;;;;5050086;28;20291;-77
2023/01/09 00:30:42;;;;;;;3.15;2.83;;;7.00;99.90;;;;;;5062953;28;20226;-77
2023/01/09 00:33:09;;;;;;;4.90;2.90;;;6.90;99.90;;;;;;5059593;28;20250;-78
2023/01/09 00:35:36;;;;;;;4.47;3.30;;;6.90;99.90;;;;;;5052961;28;20200;-79
2023/01/09 00:38:03;;;;;;;4.43;2.92;;;6.90;99.90;;;;;;5191756;22;20258;-78
2023/01/09 00:40:30;;;;;;;2.53;2.33;;;6.90;99.90;;;;;;5088446;28;20658;-78
2023/01/09 00:42:58;;;;;;;3.20;2.67;;;6.90;99.90;;;;;;5082885;28;20241;-78
2023/01/09 00:45:28;;;;;;;4.30;3.47;;;6.90;99.90;;;;;;5085122;28;20206;-78
2023/01/09 00:48:00;;;;;;;6.68;3.88;;;6.90;99.90;;;;;;5088189;28;20236;-77
2023/01/09 00:50:31;;;;;;;2.95;2.70;;;7.00;99.90;;;;;;5080695;28;20244;-77
2023/01/09 00:53:02;;;;;;;4.05;3.30;;;7.00;99.90;;;;;;5095057;28;20313;-79
2023/01/09 00:55:29;;;;;;;7.00;3.05;;;7.00;99.90;;;;;;5082688;28;20659;-77
2023/01/09 00:57:57;;;;;;;4.20;2.50;;;7.00;99.90;;;;;;5088687;28;20675;-78
2023/01/09 01:00:24;;;;;;;3.47;3.10;;;7.10;99.90;;;;;;5089977;28;20202;-79
2023/01/09 01:02:51;;;;;;;4.15;3.65;;;7.10;99.90;;;;;;5088472;28;20221;-77
2023/01/09 01:08:03;;;;;;;2.70;2.50;;;7.20;99.90;;;;;;5088222;28;20679;-79
2023/01/09 01:10:30;;;;;;;2.90;2.60;;;7.30;99.90;;;;;;5083727;28;20286;-78
2023/01/09 01:12:58;;;;;;;6.68;3.05;;;7.40;99.90;;;;;;5084482;28;20305;-76
2023/01/09 01:15:28;;;;;;;5.47;2.92;;;7.40;99.90;;;;;;5087245;28;20202;-77
2023/01/09 01:17:56;;;;;;;4.55;2.92;;;7.50;99.90;;;;;;5088842;28;20217;-78
2023/01/09 01:20:23;;;;;;;7.80;3.85;;;7.50;99.90;;;;;;5090989;28;20241;-77
2023/01/09 01:22:50;;;;;;;5.25;3.03;;;7.60;99.90;;;;;;5092918;28;20252;-77
2023/01/09 01:25:17;;;;;;;3.63;3.25;;;7.60;99.90;;;;;;5086033;28;20283;-79
2023/01/09 01:27:44;;;;;;;3.75;2.70;;;7.60;99.90;;;;;;5092771;28;20408;-77
2023/01/09 01:30:14;;;;;;;6.57;4.00;;;7.70;99.90;;;;;;5084600;28;20198;-79
2023/01/09 01:32:42;;;;;;;4.90;3.42;;;7.70;99.90;;;;;;5091105;28;20222;-78
2023/01/09 01:35:09;;;;;;;3.88;3.20;;;7.70;99.90;;;;;;5084398;28;20622;-78
2023/01/09 01:37:37;;;;;;;7.40;3.08;;;7.80;99.90;;;;;;5092510;28;20233;-76
2023/01/09 01:40:06;;;;;;;3.30;3.10;;;7.80;99.90;;;;;;5089865;28;20201;-78
2023/01/09 01:42:33;;;;;;;7.55;3.13;;;7.80;99.90;;;;;;5086124;28;20297;-78
2023/01/09 01:45:04;;;;;;;5.57;3.67;;;8.00;99.90;;;;;;5088533;28;20198;-77
2023/01/09 01:47:37;;;;;;;3.78;3.00;;;8.00;99.90;;;;;;5084093;28;20221;-77
2023/01/09 01:50:11;;;;;;;3.55;3.25;;;8.00;99.90;;;;;;5084230;28;20218;-77
2023/01/09 01:52:38;;;;;;;2.83;2.63;;;8.00;99.90;;;;;;5095544;28;20318;-79
2023/01/09 01:55:08;;;;;;;3.92;3.53;;;8.00;99.90;;;;;;5095650;28;20245;-80
2023/01/09 01:57:40;;;;;;;4.85;4.03;;;8.10;99.90;;;;;;5086147;28;20730;-79
2023/01/09 02:00:08;;;;;;;5.07;4.55;;;8.00;99.90;;;;;;5094941;28;20281;-77
2023/01/09 02:02:38;;;;;;;5.38;4.88;;;8.00;99.90;;;;;;5091712;28;20320;-80
2023/01/09 02:05:06;;;;;;;4.95;4.45;;;8.00;99.90;;;;;;5084079;28;20634;-77
2023/01/09 02:07:33;;;;;;;5.93;4.38;;;7.90;99.90;;;;;;5087126;28;20233;-80
2023/01/09 02:10:01;;;;;;;5.82;4.63;;;7.90;99.90;;;;;;5085823;28;20234;-78
2023/01/09 02:12:28;;;;;;;6.88;4.88;;;7.80;99.90;;;;;;5090884;28;20305;-79
2023/01/09 02:14:58;;;;;;;6.05;4.88;;;7.80;99.90;;;;;;5087034;28;20297;-78
2023/01/09 02:17:43;;;;;;;4.50;4.10;;;7.80;99.90;;;;;;5100083;28;20605;-77
2023/01/09 02:20:42;;;;;;;5.97;5.05;;;7.90;99.90;;;;;;5091088;28;20233;-79
2023/01/09 02:23:42;;;;;;;5.70;4.93;;;8.00;99.90;;;;;;5060202;28;20230;-81
2023/01/09 02:26:42;;;;;;;5.88;5.30;;;8.00;99.90;;;;;;5098440;28;20293;-78
2023/01/09 02:29:49;;;;;;;7.03;6.32;;;7.90;99.90;;;;;;5084554;28;20209;-78
2023/01/09 02:32:30;;;;;;;6.97;5.72;;;7.80;99.90;;;;;;5060045;28;20281;-78
2023/01/09 02:35:10;;;;;;;8.30;5.90;;;7.90;99.90;;;;;;5084166;28;20285;-79
2023/01/09 02:37:43;;;;;;;7.90;6.25;;;7.90;99.90;;;;;;5090334;28;20202;-77
2023/01/09 02:40:20;;;;;;;10.68;7.40;;;8.00;99.90;;;;;;5083238;28;20249;-79
2023/01/09 02:42:48;;;;;;;7.15;5.97;;;7.90;99.90;;;;;;5095286;28;20222;-80
2023/01/09 02:45:17;;;;;;;7.68;5.95;;;8.00;99.90;;;;;;5080098;28;20199;-79
2023/01/09 02:47:47;;;;;;;8.43;6.50;;;8.00;99.90;;;;;;5070876;28;20257;-79
2023/01/09 02:50:18;;;;;;;6.90;5.63;;;8.10;99.90;;;;;;5093375;28;20243;-78
2023/01/09 02:53:14;;;;;;;8.48;6.65;;;8.00;99.90;;;;;;5091429;28;20312;-79
2023/01/09 02:55:56;;;;;;;8.55;6.00;;;8.00;99.90;;;;;;5078024;28;20230;-77
2023/01/09 02:58:42;;;;;;;6.45;5.75;;;8.00;99.90;;;;;;5087139;28;20585;-80
2023/01/09 03:01:20;;;;;;;7.60;6.60;;;8.10;99.90;;;;;;5091907;28;20233;-80
2023/01/09 03:03:57;;;;;;;11.70;7.60;;;8.10;99.90;;;;;;5086906;28;20224;-81
2023/01/09 03:06:30;;;;;;;10.10;6.82;;;8.00;99.90;;;;;;5069271;28;20240;-81
2023/01/09 03:09:02;;;;;;;8.02;7.32;;;8.00;99.90;;;;;;5080607;28;20285;-78
2023/01/09 03:11:39;;;;;;;8.68;6.22;;;8.10;99.90;;;;;;5078845;28;20766;-77
2023/01/09 03:14:10;;;;;;;8.00;6.40;;;8.20;99.90;;;;;;5089761;28;20252;-78
2023/01/09 03:16:38;;;;;;;8.93;6.45;;;8.10;99.90;;;;;;5094438;28;20204;-78
2023/01/09 03:19:12;;;;;;;9.52;6.95;;;8.20;99.90;;;;;;5089014;28;20202;-77
2023/01/09 03:21:43;;;;;;;7.97;5.90;;;8.30;99.90;;;;;;5091234;28;20289;-78
2023/01/09 03:24:10;;;;;;;6.90;5.75;;;8.20;99.90;;;;;;5086617;28;20651;-79
2023/01/09 03:26:38;;;;;;;6.40;5.75;;;8.30;99.90;;;;;;5091796;28;20204;-78
2023/01/09 03:29:05;;;;;;;5.72;5.13;;;8.30;99.90;;;;;;5086693;28;20245;-78
2023/01/09 03:31:32;;;;;;;4.60;4.20;;;8.40;99.90;;;;;;5089461;28;20310;-77
2023/01/09 03:33:59;;;;;;;7.30;5.18;;;8.40;99.90;;;;;;5082036;28;20285;-78
2023/01/09 03:36:27;;;;;;;5.43;4.88;;;8.40;99.90;;;;;;5081534;28;20298;-79
2023/01/09 03:38:54;;;;;;;5.07;4.68;;;8.50;99.90;;;;;;5089149;28;20282;-79
2023/01/09 03:41:22;;;;;;;5.13;4.63;;;8.50;99.90;;;;;;5086540;28;20206;-79
2023/01/09 03:43:49;;;;;;;5.88;5.20;;;8.50;99.90;;;;;;5093866;28;20218;-79
2023/01/09 03:46:16;;;;;;;7.28;5.72;;;8.60;99.90;;;;;;5087336;28;20213;-79
2023/01/09 03:48:43;;;;;;;6.97;5.60;;;8.60;99.90;;;;;;5078526;28;20203;-80
2023/01/09 03:51:10;;;;;;;6.80;5.70;;;8.60;99.90;;;;;;5094855;28;20206;-77
2023/01/09 03:53:39;;;;;;;9.48;5.45;;;8.60;99.90;;;;;;5097938;28;20234;-78
2023/01/09 03:56:06;;;;;;;11.18;6.40;;;8.60;99.90;;;;;;5114674;28;20276;-80
2023/01/09 03:58:33;;;;;;;6.45;5.82;;;8.60;99.90;;;;;;5110284;28;20194;-79
2023/01/09 04:01:02;;;;;;;5.70;5.00;;;8.60;99.90;;;;;;5107139;28;20241;-78
2023/01/09 04:03:29;;;;;;;7.25;5.38;;;8.60;99.90;;;;;;5079657;28;20351;-79
2023/01/09 04:05:56;;;;;;;6.03;4.55;;;8.50;99.90;;;;;;5078957;28;20202;-79
2023/01/09 04:08:23;;;;;;;7.63;5.68;;;8.50;99.90;;;;;;5088953;28;20297;-77
2023/01/09 04:10:52;;;;;;;4.70;4.30;;;8.40;99.90;;;;;;5079364;28;20202;-77
2023/01/09 04:13:19;;;;;;;4.80;4.40;;;8.40;99.90;;;;;;5091603;28;20312;-76
2023/01/09 04:15:46;;;;;;;5.50;4.63;;;8.40;99.90;;;;;;5086530;28;20201;-78
2023/01/09 04:18:13;;;;;;;5.53;4.22;;;8.30;99.90;;;;;;5083119;28;20234;-79
2023/01/09 04:20:40;;;;;;;5.75;5.25;;;8.30;99.90;;;;;;5091284;28;20289;-77
2023/01/09 04:23:07;;;;;;;5.85;4.85;;;8.30;99.90;;;;;;5093913;28;20305;-78
2023/01/09 04:25:34;;;;;;;5.32;4.03;;;8.30;99.90;;;;;;5092716;28;20225;-78
2023/01/09 04:28:03;;;;;;;5.68;3.92;;;8.30;99.90;;;;;;5094263;28;20237;-78
2023/01/09 04:30:31;;;;;;;4.90;4.32;;;8.30;99.90;;;;;;5086730;28;20195;-78
2023/01/09 04:32:58;;;;;;;4.50;4.10;;;8.30;99.90;;;;;;5090002;28;20596;-77
2023/01/09 04:35:25;;;;;;;4.43;4.03;;;8.40;99.90;;;;;;5093710;28;20209;-78
2023/01/09 04:37:52;;;;;;;7.35;3.80;;;8.50;99.90;;;;;;5091024;28;20229;-78
2023/01/09 04:40:19;;;;;;;6.05;3.63;;;8.50;99.90;;;;;;5086935;28;20256;-77
2023/01/09 04:42:46;;;;;;;6.30;4.18;;;8.50;99.90;;;;;;5091017;28;20590;-78
2023/01/09 04:45:16;;;;;;;4.03;3.15;;;8.50;99.90;;;;;;5088692;28;20202;-77
2023/01/09 04:47:43;;;;;;;5.50;3.63;;;8.40;99.90;;;;;;5085413;28;20210;-77
2023/01/09 04:50:12;;;;;;;5.68;3.75;;;8.40;99.90;;;;;;5087877;28;20226;-77
2023/01/09 04:52:39;;;;;;;4.60;4.20;;;8.40;99.90;;;;;;5081118;28;20226;-76
2023/01/09 04:55:08;;;;;;;7.25;4.10;;;8.40;99.90;;;;;;5087302;28;20203;-76
2023/01/09 04:57:37;;;;;;;3.65;3.15;;;8.50;99.90;;;;;;5093520;28;20226;-77
2023/01/09 05:00:08;;;;;;;5.32;4.82;;;8.50;99.90;;;;;;5093815;28;20644;-77
2023/01/09 05:02:38;;;;;;;5.63;4.90;;;8.40;99.90;;;;;;5081874;28;20305;-76
2023/01/09 05:05:06;;;;;;;5.78;4.50;;;8.40;99.90;;;;;;5085567;28;20631;-76
2023/01/09 05:07:33;;;;;;;5.25;4.13;;;8.40;99.90;;;;;;5089830;28;20736;-76
2023/01/09 05:10:00;;;;;;;5.45;4.70;;;8.50;99.90;;;;;;5086470;28;20653;-75
2023/01/09 05:12:27;;;;;;;4.85;4.30;;;8.40;99.90;;;;;;5082748;28;20652;-77
2023/01/09 05:14:56;;;;;;;5.93;4.70;;;8.40;99.90;;;;;;5083968;28;20203;-77
2023/01/09 05:17:23;;;;;;;5.60;4.72;;;8.40;99.90;;;;;;5084322;28;20559;-75
2023/01/09 05:19:52;;;;;;;7.30;6.03;;;8.30;99.90;;;;;;5079583;28;20202;-75
2023/01/09 05:22:19;;;;;;;11.00;5.30;;;8.30;99.90;;;;;;5086710;28;20742;-75
2023/01/09 05:24:46;;;;;;;9.60;5.13;;;8.40;99.90;;;;;;5086200;28;20294;-77
2023/01/09 05:27:12;;;;;;;6.20;5.60;;;8.30;99.90;;;;;;5081348;28;20198;-77
2023/01/09 05:29:39;;;;;;;6.00;5.38;;;8.30;99.90;;;;;;5085450;28;20285;-76
2023/01/09 05:32:06;;;;;;;10.70;5.88;;;8.20;99.90;;;;;;5080035;28;20321;-76
2023/01/09 05:34:33;;;;;;;7.63;5.65;;;8.20;99.90;;;;;;5086787;28;20238;-75
2023/01/09 05:37:01;;;;;;;6.25;5.43;;;8.20;99.90;;;;;;5086385;28;20257;-77
2023/01/09 05:39:28;;;;;;;6.63;5.47;;;8.10;99.90;;;;;;5081691;28;20306;-76
2023/01/09 05:41:55;;;;;;;6.32;4.45;;;8.20;99.90;;;;;;5086652;28;20246;-77
2023/01/09 05:44:22;;;;;;;5.10;4.25;;;8.10;99.90;;;;;;5094127;28;20206;-76
2023/01/09 05:46:49;;;;;;;4.80;4.18;;;8.00;99.90;;;;;;5089640;28;20226;-77
2023/01/09 05:49:16;;;;;;;5.00;3.97;;;8.00;99.90;;;;;;5091873;28;20198;-76
2023/01/09 05:51:43;;;;;;;5.68;3.95;;;8.00;99.90;;;;;;5085694;28;20621;-76
2023/01/09 05:54:11;;;;;;;7.75;4.10;;;8.00;99.90;;;;;;5088132;28;20597;-76
2023/01/09 05:56:39;;;;;;;6.35;4.85;;;7.90;99.90;;;;;;5074830;28;20298;-76
2023/01/09 05:59:06;;;;;;;4.32;3.30;;;7.90;99.90;;;;;;5084448;28;20569;-76
2023/01/09 06:01:33;;;;;;;4.20;3.75;;;7.80;99.90;;;;;;5089394;28;20312;-75
2023/01/09 06:04:00;;;;;;;4.15;3.53;;;7.80;99.90;;;;;;5081914;28;20273;-76
2023/01/09 06:06:27;;;;;;;4.90;4.03;;;7.80;99.90;;;;;;5092295;28;20241;-77
2023/01/09 06:08:54;;;;;;;5.25;4.05;;;7.70;99.90;;;;;;5088913;28;20195;-76
2023/01/09 06:11:23;;;;;;;4.63;3.90;;;7.60;99.90;;;;;;5090769;28;20205;-77
2023/01/09 06:13:49;;;;;;;6.40;4.80;;;7.60;99.90;;;;;;5079518;28;20258;-76
2023/01/09 06:16:17;;;;;;;6.22;4.75;;;7.60;99.90;;;;;;5084001;28;20252;-78
2023/01/09 06:18:44;;;;;;;7.43;4.97;;;7.50;99.90;;;;;;5083156;28;20218;-77
2023/01/09 06:21:11;;;;;;;5.10;4.10;;;7.40;99.90;;;;;;5087792;28;20222;-78
2023/01/09 06:23:37;;;;;;;8.85;5.32;;;7.40;99.90;;;;;;5089737;28;20317;-78
2023/01/09 06:26:04;;;;;;;4.82;4.20;;;7.40;99.90;;;;;;5084075;28;20254;-78
2023/01/09 06:28:33;;;;;;;7.30;4.43;;;7.30;99.90;;;;;;5090169;28;20202;-77
2023/01/09 06:31:00;;;;;;;7.18;5.35;;;7.20;99.90;;;;;;5079138;28;20293;-77
2023/01/09 06:33:26;;;;;;;7.72;4.75;;;7.20;99.90;;;;;;5077291;28;20233;-76
2023/01/09 06:35:53;;;;;;;5.53;5.00;;;7.10;99.90;;;;;;5079434;28;20194;-77
2023/01/09 06:38:20;;;;;;;7.28;5.30;;;7.10;99.90;;;;;;5133807;22;20226;-76
2023/01/09 06:40:47;;;;;;;8.02;6.20;;;7.00;99.90;;;;;;5084733;28;20208;-76
2023/01/09 06:43:15;;;;;;;10.20;6.25;;;7.00;99.90;;;;;;5074112;28;20271;-79
2023/01/09 06:45:44;;;;;;;12.50;6.28;;;7.00;99.90;;;;;;5076467;28;20226;-76
2023/01/09 06:48:12;;;;;;;11.60;5.97;;;6.90;99.90;;;;;;5074954;28;20213;-78
2023/01/09 06:50:39;;;;;;;11.95;6.72;;;6.90;99.90;;;;;;5068136;28;20284;-80
2023/01/09 06:53:09;;;;;;;12.60;7.30;;;6.90;99.90;;;;;;5071169;28;20313;-81
2023/01/09 06:55:36;;;;;;;9.35;6.97;;;6.90;99.90;;;;;;5077495;28;20494;-79
2023/01/09 06:58:03;;;;;;;10.35;7.05;;;6.90;99.90;;;;;;5072904;28;20289;-82
2023/01/09 07:00:30;;;;;;;8.73;7.38;;;6.90;99.90;;;;;;5077615;28;20197;-80
2023/01/09 07:02:59;;;;;;;9.95;8.00;;;6.90;99.90;;;;;;5074184;28;20223;-80
2023/01/09 07:05:26;;;;;;;15.55;8.05;;;6.80;99.90;;;;;;5076507;28;20612;-83
2023/01/09 07:07:55;;;;;;;10.10;7.45;;;6.80;99.90;;;;;;5071076;28;20637;-79
2023/01/09 07:10:23;;;;;;;11.63;8.25;;;6.80;99.90;;;;;;5075983;28;20194;-79
2023/01/09 07:12:49;;;;;;;14.57;9.05;;;6.80;99.90;;;;;;5070967;28;20360;-80
2023/01/09 07:15:16;;;;;;;17.10;9.38;;;6.80;99.90;;;;;;5066129;28;20209;-80
2023/01/09 07:17:43;;;;;;;15.48;10.35;;;6.80;99.90;;;;;;5073947;28;20292;-79
2023/01/09 07:20:12;;;;;;;10.40;7.70;;;6.80;99.90;;;;;;5071641;28;20266;-80
2023/01/09 07:22:39;;;;;;;19.63;10.00;;;6.80;99.90;;;;;;5084838;28;20586;-78
2023/01/09 07:25:06;;;;;;;22.25;11.30;;;6.70;99.90;;;;;;5077993;28;20257;-81
2023/01/09 07:27:33;;;;;;;12.00;9.65;;;6.70;99.90;;;;;;5077196;28;20198;-80
2023/01/09 07:30:00;;;;;;;16.35;8.55;;;6.70;99.90;;;;;;5078437;28;20207;-78
2023/01/09 07:32:27;;;;;;;15.13;10.00;;;6.70;99.90;;;;;;5074066;28;20237;-79
2023/01/09 07:34:54;;;;;;;16.48;10.70;;;6.70;99.90;;;;;;5081760;28;20214;-78
2023/01/09 07:37:22;;;;;;;17.00;11.50;;;6.70;99.90;;;;;;5074600;28;20242;-79
2023/01/09 07:39:49;;;;;;;14.85;9.40;;;6.70;99.90;;;;;;5078172;28;20742;-78
2023/01/09 07:42:16;;;;;;;19.38;11.15;;;6.70;99.90;;;;;;5076299;28;20223;-80
2023/01/09 07:44:43;;;;;;;13.95;10.65;;;6.80;99.90;;;;;;5070081;28;20198;-82
2023/01/09 07:47:10;;;;;;;16.65;10.75;;;6.70;99.90;;;;;;5086913;28;20292;-82
2023/01/09 07:49:37;;;;;;;17.00;10.93;;;6.60;99.90;;;;;;5078439;28;20201;-82
2023/01/09 07:52:04;;;;;;;19.80;10.80;;;6.60;99.90;;;;;;5085548;28;20260;-85
2023/01/09 07:54:34;;;;;;;16.25;9.93;;;6.80;99.90;;;;;;5086220;28;20214;-84
2023/01/09 07:57:00;;;;;;;16.55;10.93;;;6.70;99.90;;;;;;5077402;28;20203;-80
2023/01/09 07:59:28;;;;;;;12.70;10.60;;;6.70;99.90;;;;;;5073375;28;20233;-81
2023/01/09 08:01:55;;;;;;;15.93;11.48;;;6.70;99.90;;;;;;5077184;28;20280;-82
2023/01/09 08:04:22;;;;;;;18.45;11.20;;;6.70;99.90;;;;;;5076990;28;20238;-80
2023/01/09 08:06:49;;;;;;;17.85;11.43;;;6.70;99.90;;;;;;5080639;28;20217;-81
2023/01/09 08:09:17;;;;;;;17.00;12.48;;;6.80;99.90;;;;;;5072310;28;20225;-81
2023/01/09 08:11:45;;;;;;;12.80;10.18;;;6.80;99.90;;;;;;5072414;28;20207;-81
2023/01/09 08:14:12;;;;;;;12.57;9.65;;;6.80;99.90;;;;;;5076002;28;20223;-81
2023/01/09 08:16:39;;;;;;;16.08;10.73;;;6.90;99.90;;;;;;5073763;28;20679;-81
2023/01/09 08:19:06;;;;;;;20.75;11.35;;;6.90;99.90;;;;;;5079764;28;20653;-82
2023/01/09 08:21:33;;;;;;;14.48;9.85;;;6.90;99.90;;;;;;5074702;28;20203;-83
2023/01/09 08:23:59;;;;;;;11.45;9.35;;;7.00;99.90;;;;;;5074468;28;20290;-81
2023/01/09 08:26:27;;;;;;;14.68;10.10;;;7.00;99.90;;;;;;5065922;28;20294;-81
2023/01/09 08:28:55;;;;;;;14.07;10.18;;;7.10;99.90;;;;;;5075668;28;20222;-80
2023/01/09 08:31:22;;;;;;;12.07;8.60;;;7.10;99.90;;;;;;5057733;28;20614;-81
2023/01/09 08:33:49;;;;;;;16.52;9.35;;;7.10;99.90;;;;;;5056340;28;20759;-80
2023/01/09 08:36:16;;;;;;;17.55;8.40;;;7.10;99.90;;;;;;5064977;28;20271;-80
2023/01/09 08:38:43;;;;;;;15.07;9.60;;;7.20;99.90;;;;;;5070599;28;20263;-82
2023/01/09 08:49:23;;;;;;;10.00;7.85;;;7.60;99.90;;;;;;5053481;28;20653;-85
2023/01/09 08:51:51;;;;;;;9.02;7.10;;;7.90;99.90;;;;;;5070973;28;20227;-80
2023/01/09 08:54:18;;;;;;;8.98;6.20;;;8.10;99.90;;;;;;5058286;28;20219;-81
2023/01/09 08:56:45;;;;;;;19.13;7.30;;;7.90;99.90;;;;;;5064571;28;20231;-80
2023/01/09 08:59:13;;;;;;;11.05;6.03;;;8.10;99.90;;;;;;5073768;28;20202;-81
2023/01/09 09:01:41;;;;;;;18.80;7.30;;;8.10;99.90;;;;;;5082648;28;20308;-80
2023/01/09 09:04:08;;;;;;;10.75;6.35;;;8.50;99.90;;;;;;5065899;28;20207;-79
2023/01/09 09:06:35;;;;;;;17.17;6.50;;;8.50;99.90;;;;;;5065569;28;20214;-79
2023/01/09 09:09:02;;;;;;;10.30;5.45;;;8.60;99.90;;;;;;5070924;28;20279;-81
2023/01/09 09:11:30;;;;;;;10.68;5.10;;;8.60;99.90;;;;;;5066771;28;20204;-81
2023/01/09 09:13:57;;;;;;;12.73;5.28;;;8.60;99.90;;;;;;5065338;28;20218;-79
2023/01/09 09:16:26;;;;;;;10.80;7.50;;;8.70;99.90;;;;;;5070737;28;20211;-80
2023/01/09 09:18:53;;;;;;;15.98;4.78;;;8.90;99.90;;;;;;5076922;28;20199;-79
2023/01/09 09:21:20;;;;;;;7.60;4.13;;;9.20;99.90;;;;;;5072683;28;20239;-80
2023/01/09 09:23:48;;;;;;;13.55;4.15;;;8.90;99.90;;;;;;5072374;28;20258;-79
2023/01/09 09:26:15;;;;;;;6.53;4.60;;;8.90;99.90;;;;;;5071947;28;20257;-81
2023/01/09 09:28:42;;;;;;;6.78;5.35;;;8.80;99.90;;;;;;5067294;28;20277;-80
2023/01/09 09:31:13;;;;;;;8.93;4.00;;;8.80;99.90;;;;;;5070425;28;20631;-80
2023/01/09 09:33:41;;;;;;;14.30;5.57;;;8.70;99.90;;;;;;5073940;28;20308;-80
2023/01/09 09:36:08;;;;;;;10.45;5.15;;;8.70;99.90;;;;;;5061765;28;20306;-80
2023/01/09 09:38:35;;;;;;;8.65;5.30;;;8.80;99.90;;;;;;5074523;28;20587;-80
2023/01/09 09:47:12;;;;;;;9.02;4.88;;;8.70;99.90;;;;;;5073620;28;20252;-79
2023/01/09 09:49:48;;;;;;;10.60;5.35;;;8.90;99.90;;;;;;5075267;28;20651;-79
2023/01/09 09:52:21;;;;;;;9.10;6.00;;;9.20;99.90;;;;;;5058680;28;20219;-80
2023/01/09 09:54:50;;;;;;;12.23;5.72;;;9.50;99.90;;;;;;5073527;28;20254;-80
2023/01/09 09:57:21;;;;;;;10.77;6.63;;;9.70;99.90;;;;;;5068806;28;20207;-81
2023/01/09 09:59:50;;;;;;;11.40;6.50;;;9.70;99.90;;;;;;5062152;28;20230;-78
2023/01/09 10:02:31;;;;;;;12.38;7.55;;;9.70;99.90;;;;;;5063221;28;20635;-80
2023/01/09 10:05:12;;;;;;;12.13;6.43;;;9.70;99.90;;;;;;5069660;28;20656;-79
2023/01/09 10:07:46;;;;;;;13.80;7.90;;;9.90;99.90;;;;;;5073743;28;20217;-80
2023/01/09 10:10:19;;;;;;;13.32;6.90;;;9.80;99.90;;;;;;5069321;28;20301;-79
2023/01/09 10:12:52;;;;;;;10.18;5.80;;;9.90;99.90;;;;;;5061646;28;20224;-79
2023/01/09 10:15:29;;;;;;;15.45;8.15;;;9.90;99.90;;;;;;5063016;28;20659;-80
2023/01/09 10:18:09;;;;;;;11.40;8.20;;;9.80;99.90;;;;;;5072961;28;20291;-82
2023/01/09 10:20:55;;;;;;;8.50;7.60;;;9.60;99.90;;;;;;5071129;28;20207;-81
2023/01/09 10:23:48;;;;;;;11.70;7.60;;;9.50;99.90;;;;;;5083624;28;20317;-79
2023/01/09 10:26:24;;;;;;;12.05;7.20;;;9.30;99.90;;;;;;5077598;28;20200;-82
2023/01/09 10:29:09;;;;;;;13.98;8.55;;;9.30;99.90;;;;;;5068162;28;20241;-81
2023/01/09 10:31:45;;;;;;;11.73;7.85;;;9.10;99.90;;;;;;5069213;28;20226;-81
2023/01/09 10:34:26;;;;;;;13.07;7.70;;;9.10;99.90;;;;;;5082496;28;20215;-80
2023/01/09 10:37:07;;;;;;;8.38;6.88;;;9.20;99.90;;;;;;5068787;28;20209;-80
2023/01/09 10:39:39;;;;;;;14.95;8.50;;;9.20;99.90;;;;;;5068121;28;20733;-80
2023/01/09 10:42:13;;;;;;;16.83;8.40;;;9.10;99.90;;;;;;5075099;28;20258;-80
2023/01/09 10:44:47;;;;;;;13.00;8.13;;;9.20;99.90;;;;;;5071587;28;20239;-79
2023/01/09 10:47:17;;;;;;;12.98;7.75;;;9.20;99.90;;;;;;5073237;28;20232;-81
2023/01/09 10:49:46;;;;;;;12.27;7.75;;;9.40;99.90;;;;;;5080921;28;20203;-81
2023/01/09 10:52:17;;;;;;;11.60;6.93;;;9.40;99.90;;;;;;5076519;28;20240;-81
2023/01/09 10:54:53;;;;;;;13.73;7.68;;;9.50;99.90;;;;;;5072157;28;20223;-80
2023/01/09 10:57:42;;;;;;;8.23;6.55;;;9.70;99.90;;;;;;5071982;28;20205;-81
2023/01/09 11:00:17;;;;;;;11.18;8.25;;;9.80;99.90;;;;;;5070815;28;20285;-80
2023/01/09 11:02:44;;;;;;;10.00;6.90;;;9.60;99.90;;;;;;5078422;28;20228;-81
2023/01/09 11:05:15;;;;;;;9.43;7.32;;;9.50;99.90;;;;;;5077229;28;20236;-80
2023/01/09 11:07:47;;;;;;;11.30;7.65;;;9.50;99.90;;;;;;5084951;28;20227;-81
2023/01/09 11:10:15;;;;;;;13.02;7.68;;;9.60;99.90;;;;;;5075660;28;20208;-81
2023/01/09 11:12:42;;;;;;;7.97;7.28;;;9.60;99.90;;;;;;5070352;28;20263;-80
2023/01/09 11:15:27;;;;;;;10.10;7.10;;;9.50;99.90;;;;;;5079955;28;20239;-82
2023/01/09 11:17:58;;;;;;;8.57;7.18;;;9.50;99.90;;;;;;5071972;28;20206;-81
2023/01/09 11:20:28;;;;;;;7.80;6.50;;;9.60;99.90;;;;;;5089430;28;20713;-81
2023/01/09 11:22:58;;;;;;;13.57;7.00;;;9.60;99.90;;;;;;5079754;28;20262;-80
2023/01/09 11:25:28;;;;;;;13.35;7.70;;;9.70;99.90;;;;;;5070799;28;20282;-81
2023/01/09 11:28:07;;;;;;;15.77;8.90;;;9.60;99.90;;;;;;5078224;28;20231;-80
2023/01/09 11:30:35;;;;;;;10.93;6.53;;;9.60;99.90;;;;;;5069221;28;20569;-80
2023/01/09 11:33:14;;;;;;;10.95;7.40;;;9.50;99.90;;;;;;5081082;28;20257;-80
2023/01/09 11:35:57;;;;;;;14.18;6.95;;;9.30;99.90;;;;;;5066193;28;20238;-79
2023/01/09 11:38:25;;;;;;;14.57;9.40;;;9.30;99.90;;;;;;5073997;28;20353;-81
2023/01/09 11:40:55;;;;;;;14.35;9.13;;;9.20;99.90;;;;;;5073409;28;20561;-80
2023/01/09 11:43:31;;;;;;;12.77;8.35;;;9.10;99.90;;;;;;5077703;28;20744;-80
2023/01/09 11:45:59;;;;;;;10.40;7.35;;;9.10;99.90;;;;;;5053746;28;20201;-80
2023/01/09 11:48:33;;;;;;;10.13;6.75;;;9.10;99.90;;;;;;5077705;28;20199;-79
2023/01/09 11:51:02;;;;;;;12.00;7.10;;;9.10;99.90;;;;;;5071241;28;20235;-81
2023/01/09 11:53:46;;;;;;;14.75;7.70;;;9.20;99.90;;;;;;5079478;28;20261;-79
2023/01/09 11:56:14;;;;;;;8.27;7.40;;;9.10;99.90;;;;;;5074836;28;20196;-80
2023/01/09 11:58:42;;;;;;;9.35;6.63;;;9.00;99.90;;;;;;5073913;28;20214;-79
2023/01/09 12:01:25;;;;;;;10.32;7.38;;;9.10;99.90;;;;;;5074367;28;20221;-79
2023/01/09 12:04:18;;;;;;;10.90;7.50;;;8.90;99.90;;;;;;5075146;28;20269;-80
2023/01/09 12:06:59;;;;;;;12.30;7.50;;;8.80;99.90;;;;;;5074277;28;20212;-80
2023/01/09 12:09:37;;;;;;;11.57;7.95;;;8.90;99.90;;;;;;5083998;28;20281;-80
2023/01/09 12:12:15;;;;;;;13.55;7.18;;;8.80;99.90;;;;;;5076411;28;20243;-78
2023/01/09 12:14:54;;;;;;;8.40;6.72;;;8.80;99.90;;;;;;5077155;28;20319;-79
2023/01/09 12:17:47;;;;;;;10.82;6.50;;;8.90;99.90;;;;;;5072157;28;20282;-78
2023/01/09 12:20:32;;;;;;;11.52;6.90;;;8.90;99.90;;;;;;5084824;28;20199;-80
2023/01/09 12:23:14;;;;;;;12.63;7.53;;;8.80;99.90;;;;;;5081447;28;20658;-79
2023/01/09 12:25:55;;;;;;;10.38;7.93;;;8.80;99.90;;;;;;5076520;28;20231;-79
2023/01/09 12:28:48;;;;;;;12.68;7.50;;;8.90;99.90;;;;;;5077423;28;20207;-78
2023/01/09 12:31:36;;;;;;;8.27;7.40;;;9.00;99.90;;;;;;5078099;28;20574;-80
2023/01/09 12:34:15;;;;;;;7.57;5.43;;;9.10;99.90;;;;;;5076630;28;20628;-81
2023/01/09 12:36:53;;;;;;;7.45;5.97;;;9.10;99.90;;;;;;5088244;22;20210;-81
2023/01/09 12:39:33;;;;;;;6.93;4.85;;;9.10;99.90;;;;;;5049941;28;20222;-83
2023/01/09 12:42:15;;;;;;;7.63;6.82;;;9.20;99.90;;;;;;5060562;28;20224;-84
2023/01/09 12:44:50;;;;;;;9.07;6.10;;;9.30;99.90;;;;;;5062428;28;20201;-83
2023/01/09 12:47:50;;;;;;;10.23;5.63;;;9.50;99.90;;;;;;5051326;28;20225;-85
2023/01/09 12:50:48;;;;;;;12.32;6.45;;;9.10;99.90;;;;;;5049655;28;20213;-84
2023/01/09 12:53:21;;;;;;;5.18;4.68;;;9.50;99.90;;;;;;5046200;28;20255;-81
2023/01/09 12:55:54;;;;;;;10.85;6.10;;;9.60;99.90;;;;;;5043303;28;20305;-86
2023/01/09 12:58:31;;;;;;;8.02;5.00;;;9.60;99.90;;;;;;5043140;28;20213;-84
2023/01/09 13:01:02;;;;;;;7.00;3.75;;;9.50;99.90;;;;;;5046227;28;20209;-85
2023/01/09 13:03:40;;;;;;;4.53;4.00;;;9.80;99.90;;;;;;5047742;28;20182;-83
2023/01/09 13:06:28;;;;;;;6.20;3.20;;;9.80;99.90;;;;;;5065219;28;20217;-83
2023/01/09 13:09:33;;;;;;;;;;;;;;;;;;;;;
2023/01/09 13:30:09;;;;;;;5.25;2.88;;;8.70;99.90;;;;;;5005019;28;20220;-86
2023/01/09 13:33:07;;;;;;;2.88;2.67;;;8.70;99.90;;;;;;5025250;28;20193;-86
2023/01/09 13:36:20;;;;;;;5.63;4.82;;;8.70;99.90;;;;;;5049815;28;20296;-86
2023/01/09 13:39:01;;;;;;;3.63;3.13;;;8.70;99.90;;;;;;5029041;28;20499;-86
2023/01/09 13:48:48;;;;;;;7.20;3.25;;;8.80;99.90;;;;;;4994888;28;20246;-86
2023/01/09 13:51:55;;;;;;;6.15;4.15;;;8.80;99.90;;;;;;5055117;28;20208;-87
2023/01/09 13:55:13;;;;;;;;;;;;;;;;;;;;;
2023/01/09 13:58:38;;;;;;;9.25;5.00;;;8.60;99.90;;;;;;5040542;28;20234;-88
2023/01/09 14:01:34;;;;;;;12.02;4.47;;;8.60;99.90;;;;;;5041994;28;20732;-87